sensor_id;sensor_type;location;lat;lon;timestamp;P1;durP1;ratioP1;P2;durP2;ratioP2
59434;SDS011;45241;49.768;8.636;2022-07-29T00:02:05;1.77;;;1.50;;
59434;SDS011;45241;49.768;8.636;2022-07-29T00:04:30;2.20;;;1.58;;
59434;SDS011;45241;49.768;8.636;2022-07-29T00:06:55;1.77;;;1.60;;
59434;SDS011;45241;49.768;8.636;2022-07-29T00:09:21;4.78;;;1.63;;
59434;SDS011;45241;49.768;8.636;2022-07-29T00:11:46;2.00;;;1.50;;
59434;SDS011;45241;49.768;8.636;2022-07-29T00:14:12;1.70;;;1.60;;
59434;SDS011;45241;49.768;8.636;2022-07-29T00:16:37;1.60;;;1.20;;
59434;SDS011;45241;49.768;8.636;2022-07-29T00:19:02;4.65;;;1.70;;
59434;SDS011;45241;49.768;8.636;2022-07-29T00:21:28;2.38;;;1.70;;
59434;SDS011;45241;49.768;8.636;2022-07-29T00:23:54;3.08;;;1.70;;
59434;SDS011;45241;49.768;8.636;2022-07-29T00:26:19;1.90;;;1.60;;
59434;SDS011;45241;49.768;8.636;2022-07-29T00:28:44;3.60;;;1.75;;
59434;SDS011;45241;49.768;8.636;2022-07-29T00:31:10;4.18;;;1.77;;
59434;SDS011;45241;49.768;8.636;2022-07-29T00:33:35;3.08;;;1.48;;
59434;SDS011;45241;49.768;8.636;2022-07-29T00:36:01;2.28;;;1.40;;
59434;SDS011;45241;49.768;8.636;2022-07-29T00:38:26;3.00;;;1.65;;
59434;SDS011;45241;49.768;8.636;2022-07-29T00:40:51;2.25;;;1.70;;
59434;SDS011;45241;49.768;8.636;2022-07-29T00:43:17;3.67;;;1.67;;
59434;SDS011;45241;49.768;8.636;2022-07-29T00:45:42;2.05;;;1.60;;
59434;SDS011;45241;49.768;8.636;2022-07-29T00:48:08;2.00;;;1.60;;
59434;SDS011;45241;49.768;8.636;2022-07-29T00:50:34;2.22;;;1.70;;
59434;SDS011;45241;49.768;8.636;2022-07-29T00:53:01;2.05;;;1.70;;
59434;SDS011;45241;49.768;8.636;2022-07-29T00:55:27;1.80;;;1.65;;
59434;SDS011;45241;49.768;8.636;2022-07-29T00:57:54;2.97;;;1.70;;
59434;SDS011;45241;49.768;8.636;2022-07-29T01:00:22;2.58;;;1.90;;
59434;SDS011;45241;49.768;8.636;2022-07-29T01:02:50;1.95;;;1.58;;
59434;SDS011;45241;49.768;8.636;2022-07-29T01:05:23;3.92;;;1.60;;
59434;SDS011;45241;49.768;8.636;2022-07-29T01:07:51;4.75;;;1.77;;
59434;SDS011;45241;49.768;8.636;2022-07-29T01:10:18;6.32;;;1.80;;
59434;SDS011;45241;49.768;8.636;2022-07-29T01:12:46;2.47;;;1.58;;
59434;SDS011;45241;49.768;8.636;2022-07-29T01:15:14;2.72;;;1.67;;
59434;SDS011;45241;49.768;8.636;2022-07-29T01:17:44;4.25;;;1.80;;
59434;SDS011;45241;49.768;8.636;2022-07-29T01:34:17;2.55;;;1.70;;
59434;SDS011;45241;49.768;8.636;2022-07-29T01:36:48;4.90;;;1.70;;
59434;SDS011;45241;49.768;8.636;2022-07-29T01:39:32;3.50;;;1.60;;
59434;SDS011;45241;49.768;8.636;2022-07-29T01:42:12;1.92;;;1.60;;
59434;SDS011;45241;49.768;8.636;2022-07-29T01:44:48;3.92;;;1.85;;
59434;SDS011;45241;49.768;8.636;2022-07-29T01:47:19;7.20;;;1.70;;
59434;SDS011;45241;49.768;8.636;2022-07-29T01:49:49;2.20;;;1.83;;
59434;SDS011;45241;49.768;8.636;2022-07-29T01:52:27;2.40;;;1.83;;
59434;SDS011;45241;49.768;8.636;2022-07-29T01:55:06;3.45;;;1.48;;
59434;SDS011;45241;49.768;8.636;2022-07-29T01:57:35;1.90;;;1.48;;
59434;SDS011;45241;49.768;8.636;2022-07-29T02:00:05;5.38;;;1.80;;
59434;SDS011;45241;49.768;8.636;2022-07-29T02:02:31;2.17;;;1.70;;
59434;SDS011;45241;49.768;8.636;2022-07-29T02:04:59;2.42;;;1.70;;
59434;SDS011;45241;49.768;8.636;2022-07-29T02:07:28;5.20;;;1.45;;
59434;SDS011;45241;49.768;8.636;2022-07-29T02:09:56;1.83;;;1.55;;
59434;SDS011;45241;49.768;8.636;2022-07-29T02:12:25;2.50;;;1.90;;
59434;SDS011;45241;49.768;8.636;2022-07-29T02:14:53;2.72;;;1.67;;
59434;SDS011;45241;49.768;8.636;2022-07-29T02:17:23;3.72;;;1.35;;
59434;SDS011;45241;49.768;8.636;2022-07-29T02:19:56;4.55;;;1.70;;
59434;SDS011;45241;49.768;8.636;2022-07-29T02:22:24;1.58;;;1.48;;
59434;SDS011;45241;49.768;8.636;2022-07-29T02:24:51;2.83;;;1.40;;
59434;SDS011;45241;49.768;8.636;2022-07-29T02:27:18;2.35;;;1.42;;
59434;SDS011;45241;49.768;8.636;2022-07-29T02:29:47;4.03;;;1.63;;
59434;SDS011;45241;49.768;8.636;2022-07-29T02:32:15;2.22;;;1.40;;
59434;SDS011;45241;49.768;8.636;2022-07-29T02:34:42;4.10;;;1.58;;
59434;SDS011;45241;49.768;8.636;2022-07-29T02:37:11;3.35;;;1.73;;
59434;SDS011;45241;49.768;8.636;2022-07-29T02:39:38;2.38;;;1.50;;
59434;SDS011;45241;49.768;8.636;2022-07-29T02:42:07;3.22;;;1.63;;
59434;SDS011;45241;49.768;8.636;2022-07-29T02:44:35;1.70;;;1.50;;
59434;SDS011;45241;49.768;8.636;2022-07-29T02:47:06;1.90;;;1.70;;
59434;SDS011;45241;49.768;8.636;2022-07-29T02:58:41;3.30;;;1.50;;
59434;SDS011;45241;49.768;8.636;2022-07-29T03:00:53;4.20;;;1.65;;
59434;SDS011;45241;49.768;8.636;2022-07-29T03:03:21;3.00;;;1.80;;
59434;SDS011;45241;49.768;8.636;2022-07-29T03:05:52;3.58;;;1.58;;
59434;SDS011;45241;49.768;8.636;2022-07-29T03:08:21;2.92;;;1.67;;
59434;SDS011;45241;49.768;8.636;2022-07-29T03:10:47;3.30;;;1.80;;
59434;SDS011;45241;49.768;8.636;2022-07-29T03:13:13;1.98;;;1.52;;
59434;SDS011;45241;49.768;8.636;2022-07-29T03:15:39;2.85;;;1.67;;
59434;SDS011;45241;49.768;8.636;2022-07-29T03:18:06;4.25;;;2.00;;
59434;SDS011;45241;49.768;8.636;2022-07-29T03:20:33;3.65;;;1.70;;
59434;SDS011;45241;49.768;8.636;2022-07-29T03:22:58;3.70;;;1.88;;
59434;SDS011;45241;49.768;8.636;2022-07-29T03:25:24;2.22;;;1.73;;
59434;SDS011;45241;49.768;8.636;2022-07-29T03:27:49;2.83;;;1.60;;
59434;SDS011;45241;49.768;8.636;2022-07-29T03:30:15;3.40;;;1.60;;
59434;SDS011;45241;49.768;8.636;2022-07-29T03:32:41;2.60;;;1.73;;
59434;SDS011;45241;49.768;8.636;2022-07-29T03:35:07;5.30;;;2.00;;
59434;SDS011;45241;49.768;8.636;2022-07-29T03:37:32;3.35;;;1.70;;
59434;SDS011;45241;49.768;8.636;2022-07-29T03:39:58;1.65;;;1.55;;
59434;SDS011;45241;49.768;8.636;2022-07-29T03:42:26;3.08;;;1.52;;
59434;SDS011;45241;49.768;8.636;2022-07-29T03:44:55;3.10;;;1.60;;
59434;SDS011;45241;49.768;8.636;2022-07-29T03:47:24;2.25;;;1.38;;
59434;SDS011;45241;49.768;8.636;2022-07-29T03:49:52;3.88;;;1.95;;
59434;SDS011;45241;49.768;8.636;2022-07-29T03:52:21;3.40;;;2.05;;
59434;SDS011;45241;49.768;8.636;2022-07-29T03:54:47;5.40;;;1.58;;
59434;SDS011;45241;49.768;8.636;2022-07-29T03:57:13;2.30;;;1.40;;
59434;SDS011;45241;49.768;8.636;2022-07-29T03:59:41;5.13;;;1.73;;
59434;SDS011;45241;49.768;8.636;2022-07-29T04:02:08;4.65;;;1.80;;
59434;SDS011;45241;49.768;8.636;2022-07-29T04:04:35;4.38;;;1.50;;
59434;SDS011;45241;49.768;8.636;2022-07-29T04:07:02;2.22;;;1.52;;
59434;SDS011;45241;49.768;8.636;2022-07-29T04:09:28;3.05;;;1.55;;
59434;SDS011;45241;49.768;8.636;2022-07-29T04:11:53;2.53;;;1.58;;
59434;SDS011;45241;49.768;8.636;2022-07-29T04:14:19;2.65;;;1.50;;
59434;SDS011;45241;49.768;8.636;2022-07-29T04:16:45;3.63;;;1.80;;
59434;SDS011;45241;49.768;8.636;2022-07-29T04:19:10;5.55;;;1.98;;
59434;SDS011;45241;49.768;8.636;2022-07-29T04:21:36;3.75;;;1.85;;
59434;SDS011;45241;49.768;8.636;2022-07-29T04:24:05;3.47;;;1.52;;
59434;SDS011;45241;49.768;8.636;2022-07-29T04:26:32;4.35;;;2.05;;
59434;SDS011;45241;49.768;8.636;2022-07-29T04:28:57;4.00;;;1.70;;
59434;SDS011;45241;49.768;8.636;2022-07-29T04:31:23;4.25;;;1.60;;
59434;SDS011;45241;49.768;8.636;2022-07-29T04:33:48;4.97;;;2.05;;
59434;SDS011;45241;49.768;8.636;2022-07-29T04:36:13;2.72;;;1.90;;
59434;SDS011;45241;49.768;8.636;2022-07-29T04:38:38;3.47;;;1.67;;
59434;SDS011;45241;49.768;8.636;2022-07-29T04:41:04;3.83;;;1.95;;
59434;SDS011;45241;49.768;8.636;2022-07-29T04:43:31;2.95;;;1.83;;
59434;SDS011;45241;49.768;8.636;2022-07-29T04:45:57;3.88;;;1.80;;
59434;SDS011;45241;49.768;8.636;2022-07-29T04:48:22;3.00;;;2.10;;
59434;SDS011;45241;49.768;8.636;2022-07-29T04:50:48;2.80;;;1.90;;
59434;SDS011;45241;49.768;8.636;2022-07-29T04:53:13;4.18;;;1.65;;
59434;SDS011;45241;49.768;8.636;2022-07-29T04:55:38;2.40;;;1.58;;
59434;SDS011;45241;49.768;8.636;2022-07-29T04:58:04;3.55;;;1.90;;
59434;SDS011;45241;49.768;8.636;2022-07-29T05:00:29;3.40;;;1.80;;
59434;SDS011;45241;49.768;8.636;2022-07-29T05:02:54;4.38;;;2.00;;
59434;SDS011;45241;49.768;8.636;2022-07-29T05:05:20;2.75;;;1.70;;
59434;SDS011;45241;49.768;8.636;2022-07-29T05:07:45;3.50;;;1.98;;
59434;SDS011;45241;49.768;8.636;2022-07-29T05:10:10;4.10;;;1.90;;
59434;SDS011;45241;49.768;8.636;2022-07-29T05:12:36;2.53;;;1.60;;
59434;SDS011;45241;49.768;8.636;2022-07-29T05:15:02;3.47;;;2.00;;
59434;SDS011;45241;49.768;8.636;2022-07-29T05:17:27;5.22;;;1.92;;
59434;SDS011;45241;49.768;8.636;2022-07-29T05:19:53;4.50;;;1.80;;
59434;SDS011;45241;49.768;8.636;2022-07-29T05:22:18;2.90;;;2.00;;
59434;SDS011;45241;49.768;8.636;2022-07-29T05:24:44;4.93;;;2.00;;
59434;SDS011;45241;49.768;8.636;2022-07-29T05:27:09;4.15;;;2.55;;
59434;SDS011;45241;49.768;8.636;2022-07-29T05:29:35;3.38;;;1.90;;
59434;SDS011;45241;49.768;8.636;2022-07-29T05:32:00;4.60;;;1.98;;
59434;SDS011;45241;49.768;8.636;2022-07-29T05:34:26;4.03;;;1.85;;
59434;SDS011;45241;49.768;8.636;2022-07-29T05:36:51;3.55;;;1.90;;
59434;SDS011;45241;49.768;8.636;2022-07-29T05:39:17;4.22;;;2.05;;
59434;SDS011;45241;49.768;8.636;2022-07-29T05:41:42;4.40;;;2.00;;
59434;SDS011;45241;49.768;8.636;2022-07-29T05:44:08;5.68;;;2.10;;
59434;SDS011;45241;49.768;8.636;2022-07-29T05:46:33;5.28;;;1.95;;
59434;SDS011;45241;49.768;8.636;2022-07-29T05:48:58;6.05;;;2.08;;
59434;SDS011;45241;49.768;8.636;2022-07-29T05:51:24;3.83;;;2.00;;
59434;SDS011;45241;49.768;8.636;2022-07-29T05:53:49;3.92;;;2.00;;
59434;SDS011;45241;49.768;8.636;2022-07-29T05:56:14;2.88;;;1.75;;
59434;SDS011;45241;49.768;8.636;2022-07-29T05:58:40;3.67;;;2.03;;
59434;SDS011;45241;49.768;8.636;2022-07-29T06:01:05;3.72;;;2.17;;
59434;SDS011;45241;49.768;8.636;2022-07-29T06:03:30;8.20;;;2.15;;
59434;SDS011;45241;49.768;8.636;2022-07-29T06:05:56;4.40;;;1.90;;
59434;SDS011;45241;49.768;8.636;2022-07-29T06:08:21;3.08;;;2.08;;
59434;SDS011;45241;49.768;8.636;2022-07-29T06:10:46;4.55;;;2.10;;
59434;SDS011;45241;49.768;8.636;2022-07-29T06:13:12;2.60;;;1.80;;
59434;SDS011;45241;49.768;8.636;2022-07-29T06:15:37;3.22;;;2.00;;
59434;SDS011;45241;49.768;8.636;2022-07-29T06:18:03;3.75;;;2.05;;
59434;SDS011;45241;49.768;8.636;2022-07-29T06:20:32;4.40;;;2.15;;
59434;SDS011;45241;49.768;8.636;2022-07-29T06:22:58;5.13;;;2.00;;
59434;SDS011;45241;49.768;8.636;2022-07-29T06:25:24;3.10;;;1.88;;
59434;SDS011;45241;49.768;8.636;2022-07-29T06:27:49;3.45;;;2.25;;
59434;SDS011;45241;49.768;8.636;2022-07-29T06:30:14;2.65;;;1.85;;
59434;SDS011;45241;49.768;8.636;2022-07-29T06:32:39;3.85;;;2.20;;
59434;SDS011;45241;49.768;8.636;2022-07-29T06:35:05;3.42;;;2.10;;
59434;SDS011;45241;49.768;8.636;2022-07-29T06:37:31;4.13;;;2.33;;
59434;SDS011;45241;49.768;8.636;2022-07-29T06:39:56;4.50;;;2.00;;
59434;SDS011;45241;49.768;8.636;2022-07-29T06:42:43;2.75;;;1.80;;
59434;SDS011;45241;49.768;8.636;2022-07-29T06:45:09;3.30;;;1.73;;
59434;SDS011;45241;49.768;8.636;2022-07-29T06:47:38;2.72;;;1.90;;
59434;SDS011;45241;49.768;8.636;2022-07-29T06:50:03;2.78;;;1.98;;
59434;SDS011;45241;49.768;8.636;2022-07-29T06:52:29;5.65;;;2.47;;
59434;SDS011;45241;49.768;8.636;2022-07-29T06:54:55;3.30;;;2.00;;
59434;SDS011;45241;49.768;8.636;2022-07-29T06:57:20;2.28;;;2.00;;
59434;SDS011;45241;49.768;8.636;2022-07-29T06:59:46;5.00;;;2.10;;
59434;SDS011;45241;49.768;8.636;2022-07-29T07:02:12;4.53;;;2.13;;
59434;SDS011;45241;49.768;8.636;2022-07-29T07:04:37;5.63;;;2.05;;
59434;SDS011;45241;49.768;8.636;2022-07-29T07:07:03;4.72;;;2.03;;
59434;SDS011;45241;49.768;8.636;2022-07-29T07:09:28;7.55;;;2.20;;
59434;SDS011;45241;49.768;8.636;2022-07-29T07:11:53;6.50;;;2.00;;
59434;SDS011;45241;49.768;8.636;2022-07-29T07:14:19;3.13;;;2.05;;
59434;SDS011;45241;49.768;8.636;2022-07-29T07:16:44;2.88;;;2.00;;
59434;SDS011;45241;49.768;8.636;2022-07-29T07:19:09;3.95;;;2.10;;
59434;SDS011;45241;49.768;8.636;2022-07-29T07:21:34;7.50;;;2.55;;
59434;SDS011;45241;49.768;8.636;2022-07-29T07:24:00;3.65;;;2.10;;
59434;SDS011;45241;49.768;8.636;2022-07-29T07:26:25;3.03;;;2.13;;
59434;SDS011;45241;49.768;8.636;2022-07-29T07:28:51;4.82;;;2.60;;
59434;SDS011;45241;49.768;8.636;2022-07-29T07:31:17;3.47;;;2.17;;
59434;SDS011;45241;49.768;8.636;2022-07-29T07:33:43;3.72;;;2.20;;
59434;SDS011;45241;49.768;8.636;2022-07-29T07:36:08;5.15;;;2.20;;
59434;SDS011;45241;49.768;8.636;2022-07-29T07:38:33;2.30;;;2.00;;
59434;SDS011;45241;49.768;8.636;2022-07-29T07:40:58;3.55;;;2.30;;
59434;SDS011;45241;49.768;8.636;2022-07-29T07:43:24;5.90;;;2.20;;
59434;SDS011;45241;49.768;8.636;2022-07-29T07:45:49;5.03;;;2.35;;
59434;SDS011;45241;49.768;8.636;2022-07-29T07:48:15;4.50;;;2.25;;
59434;SDS011;45241;49.768;8.636;2022-07-29T07:50:40;5.18;;;2.20;;
59434;SDS011;45241;49.768;8.636;2022-07-29T07:53:05;4.57;;;2.00;;
59434;SDS011;45241;49.768;8.636;2022-07-29T07:55:31;3.20;;;2.10;;
59434;SDS011;45241;49.768;8.636;2022-07-29T07:57:56;4.53;;;2.25;;
59434;SDS011;45241;49.768;8.636;2022-07-29T08:00:21;3.75;;;2.42;;
59434;SDS011;45241;49.768;8.636;2022-07-29T08:02:47;3.58;;;2.20;;
59434;SDS011;45241;49.768;8.636;2022-07-29T08:05:12;3.33;;;2.40;;
59434;SDS011;45241;49.768;8.636;2022-07-29T08:07:42;3.20;;;2.22;;
59434;SDS011;45241;49.768;8.636;2022-07-29T08:10:09;5.07;;;2.22;;
59434;SDS011;45241;49.768;8.636;2022-07-29T08:12:34;2.97;;;2.30;;
59434;SDS011;45241;49.768;8.636;2022-07-29T08:14:59;2.97;;;2.00;;
59434;SDS011;45241;49.768;8.636;2022-07-29T08:17:25;4.63;;;2.45;;
59434;SDS011;45241;49.768;8.636;2022-07-29T08:19:51;6.70;;;2.90;;
59434;SDS011;45241;49.768;8.636;2022-07-29T08:22:17;5.28;;;2.60;;
59434;SDS011;45241;49.768;8.636;2022-07-29T08:24:42;4.32;;;2.30;;
59434;SDS011;45241;49.768;8.636;2022-07-29T08:27:07;4.43;;;2.35;;
59434;SDS011;45241;49.768;8.636;2022-07-29T08:29:33;3.33;;;2.20;;
59434;SDS011;45241;49.768;8.636;2022-07-29T08:31:59;3.42;;;2.40;;
59434;SDS011;45241;49.768;8.636;2022-07-29T08:34:24;2.60;;;2.20;;
59434;SDS011;45241;49.768;8.636;2022-07-29T08:36:50;3.55;;;2.63;;
59434;SDS011;45241;49.768;8.636;2022-07-29T08:39:16;5.07;;;2.40;;
59434;SDS011;45241;49.768;8.636;2022-07-29T08:41:42;3.58;;;2.65;;
59434;SDS011;45241;49.768;8.636;2022-07-29T08:44:07;3.55;;;2.50;;
59434;SDS011;45241;49.768;8.636;2022-07-29T08:46:36;2.75;;;2.55;;
59434;SDS011;45241;49.768;8.636;2022-07-29T08:49:03;2.88;;;2.35;;
59434;SDS011;45241;49.768;8.636;2022-07-29T08:51:29;3.20;;;2.42;;
59434;SDS011;45241;49.768;8.636;2022-07-29T08:56:24;5.68;;;2.65;;
59434;SDS011;45241;49.768;8.636;2022-07-29T08:58:49;6.28;;;2.60;;
59434;SDS011;45241;49.768;8.636;2022-07-29T09:01:16;3.08;;;2.50;;
59434;SDS011;45241;49.768;8.636;2022-07-29T09:03:45;2.95;;;2.60;;
59434;SDS011;45241;49.768;8.636;2022-07-29T09:06:14;4.85;;;2.55;;
59434;SDS011;45241;49.768;8.636;2022-07-29T09:08:42;3.33;;;2.90;;
59434;SDS011;45241;49.768;8.636;2022-07-29T09:11:08;4.93;;;2.83;;
59434;SDS011;45241;49.768;8.636;2022-07-29T09:13:33;5.40;;;2.67;;
59434;SDS011;45241;49.768;8.636;2022-07-29T09:15:59;4.68;;;3.20;;
59434;SDS011;45241;49.768;8.636;2022-07-29T09:18:38;2.97;;;2.47;;
59434;SDS011;45241;49.768;8.636;2022-07-29T09:21:06;4.28;;;2.70;;
59434;SDS011;45241;49.768;8.636;2022-07-29T09:23:59;3.72;;;3.10;;
59434;SDS011;45241;49.768;8.636;2022-07-29T09:26:27;3.15;;;2.63;;
59434;SDS011;45241;49.768;8.636;2022-07-29T09:28:53;3.45;;;2.50;;
59434;SDS011;45241;49.768;8.636;2022-07-29T09:31:19;6.20;;;3.03;;
59434;SDS011;45241;49.768;8.636;2022-07-29T09:33:57;5.05;;;3.00;;
59434;SDS011;45241;49.768;8.636;2022-07-29T09:36:23;3.63;;;2.80;;
59434;SDS011;45241;49.768;8.636;2022-07-29T09:38:56;3.10;;;2.63;;
59434;SDS011;45241;49.768;8.636;2022-07-29T09:41:23;4.60;;;2.70;;
59434;SDS011;45241;49.768;8.636;2022-07-29T09:43:56;4.35;;;2.63;;
59434;SDS011;45241;49.768;8.636;2022-07-29T09:46:22;4.40;;;2.60;;
59434;SDS011;45241;49.768;8.636;2022-07-29T09:51:37;6.95;;;3.00;;
59434;SDS011;45241;49.768;8.636;2022-07-29T09:54:22;4.30;;;2.65;;
59434;SDS011;45241;49.768;8.636;2022-07-29T09:56:49;2.95;;;2.65;;
59434;SDS011;45241;49.768;8.636;2022-07-29T09:59:15;4.72;;;2.50;;
59434;SDS011;45241;49.768;8.636;2022-07-29T10:01:41;4.93;;;2.78;;
59434;SDS011;45241;49.768;8.636;2022-07-29T10:04:07;3.13;;;2.60;;
59434;SDS011;45241;49.768;8.636;2022-07-29T10:06:32;4.38;;;2.90;;
59434;SDS011;45241;49.768;8.636;2022-07-29T10:09:07;4.30;;;2.88;;
59434;SDS011;45241;49.768;8.636;2022-07-29T10:11:34;4.35;;;2.50;;
59434;SDS011;45241;49.768;8.636;2022-07-29T10:14:01;4.35;;;2.90;;
59434;SDS011;45241;49.768;8.636;2022-07-29T10:16:28;3.75;;;2.70;;
59434;SDS011;45241;49.768;8.636;2022-07-29T10:18:58;5.72;;;2.92;;
59434;SDS011;45241;49.768;8.636;2022-07-29T10:21:24;4.43;;;3.15;;
59434;SDS011;45241;49.768;8.636;2022-07-29T10:23:50;4.63;;;3.72;;
59434;SDS011;45241;49.768;8.636;2022-07-29T10:26:17;5.97;;;3.30;;
59434;SDS011;45241;49.768;8.636;2022-07-29T10:28:43;5.50;;;3.75;;
59434;SDS011;45241;49.768;8.636;2022-07-29T10:31:11;4.43;;;3.17;;
59434;SDS011;45241;49.768;8.636;2022-07-29T10:36:51;3.17;;;2.90;;
59434;SDS011;45241;49.768;8.636;2022-07-29T10:44:49;3.20;;;2.90;;
59434;SDS011;45241;49.768;8.636;2022-07-29T10:47:22;5.68;;;4.47;;
59434;SDS011;45241;49.768;8.636;2022-07-29T10:49:56;4.70;;;2.85;;
59434;SDS011;45241;49.768;8.636;2022-07-29T10:52:22;5.55;;;2.95;;
59434;SDS011;45241;49.768;8.636;2022-07-29T10:54:49;4.22;;;2.90;;
59434;SDS011;45241;49.768;8.636;2022-07-29T10:57:17;6.18;;;3.25;;
59434;SDS011;45241;49.768;8.636;2022-07-29T10:59:46;5.43;;;3.30;;
59434;SDS011;45241;49.768;8.636;2022-07-29T11:07:21;4.27;;;3.10;;
59434;SDS011;45241;49.768;8.636;2022-07-29T11:15:06;3.67;;;2.60;;
59434;SDS011;45241;49.768;8.636;2022-07-29T11:20:35;4.00;;;2.90;;
59434;SDS011;45241;49.768;8.636;2022-07-29T11:23:43;5.85;;;3.03;;
59434;SDS011;45241;49.768;8.636;2022-07-29T11:28:35;4.03;;;3.22;;
59434;SDS011;45241;49.768;8.636;2022-07-29T11:31:13;3.58;;;3.13;;
59434;SDS011;45241;49.768;8.636;2022-07-29T11:33:40;5.82;;;2.72;;
59434;SDS011;45241;49.768;8.636;2022-07-29T11:36:10;6.13;;;3.10;;
59434;SDS011;45241;49.768;8.636;2022-07-29T11:38:36;4.57;;;2.60;;
59434;SDS011;45241;49.768;8.636;2022-07-29T11:43:49;3.80;;;3.15;;
59434;SDS011;45241;49.768;8.636;2022-07-29T11:47:04;3.30;;;2.90;;
59434;SDS011;45241;49.768;8.636;2022-07-29T11:49:12;4.43;;;2.97;;
59434;SDS011;45241;49.768;8.636;2022-07-29T11:51:38;4.07;;;2.90;;
59434;SDS011;45241;49.768;8.636;2022-07-29T11:54:04;4.72;;;2.85;;
59434;SDS011;45241;49.768;8.636;2022-07-29T11:56:33;2.83;;;2.63;;
59434;SDS011;45241;49.768;8.636;2022-07-29T11:59:04;3.13;;;2.50;;
59434;SDS011;45241;49.768;8.636;2022-07-29T12:01:31;4.32;;;3.05;;
59434;SDS011;45241;49.768;8.636;2022-07-29T12:04:03;3.13;;;2.83;;
59434;SDS011;45241;49.768;8.636;2022-07-29T12:06:29;3.25;;;2.90;;
59434;SDS011;45241;49.768;8.636;2022-07-29T12:08:55;6.60;;;3.40;;
59434;SDS011;45241;49.768;8.636;2022-07-29T12:11:21;3.42;;;3.00;;
59434;SDS011;45241;49.768;8.636;2022-07-29T12:13:47;3.13;;;2.83;;
59434;SDS011;45241;49.768;8.636;2022-07-29T12:16:13;4.25;;;3.03;;
59434;SDS011;45241;49.768;8.636;2022-07-29T12:18:38;3.65;;;3.22;;
59434;SDS011;45241;49.768;8.636;2022-07-29T12:21:04;5.15;;;3.00;;
59434;SDS011;45241;49.768;8.636;2022-07-29T12:23:30;4.95;;;3.00;;
59434;SDS011;45241;49.768;8.636;2022-07-29T12:25:57;3.80;;;3.25;;
59434;SDS011;45241;49.768;8.636;2022-07-29T12:28:23;2.90;;;2.60;;
59434;SDS011;45241;49.768;8.636;2022-07-29T12:30:49;3.50;;;2.92;;
59434;SDS011;45241;49.768;8.636;2022-07-29T12:33:16;3.13;;;2.78;;
59434;SDS011;45241;49.768;8.636;2022-07-29T12:35:48;4.63;;;2.72;;
59434;SDS011;45241;49.768;8.636;2022-07-29T12:40:42;3.25;;;2.58;;
59434;SDS011;45241;49.768;8.636;2022-07-29T12:45:42;2.85;;;2.63;;
59434;SDS011;45241;49.768;8.636;2022-07-29T12:48:09;4.68;;;3.10;;
59434;SDS011;45241;49.768;8.636;2022-07-29T12:50:36;4.30;;;3.13;;
59434;SDS011;45241;49.768;8.636;2022-07-29T12:53:16;4.68;;;3.17;;
59434;SDS011;45241;49.768;8.636;2022-07-29T12:55:45;3.03;;;2.55;;
59434;SDS011;45241;49.768;8.636;2022-07-29T12:58:26;5.13;;;3.00;;
59434;SDS011;45241;49.768;8.636;2022-07-29T13:06:31;6.18;;;2.95;;
59434;SDS011;45241;49.768;8.636;2022-07-29T13:11:34;4.05;;;2.85;;
59434;SDS011;45241;49.768;8.636;2022-07-29T13:14:14;2.80;;;2.60;;
59434;SDS011;45241;49.768;8.636;2022-07-29T13:17:00;3.67;;;2.65;;
59434;SDS011;45241;49.768;8.636;2022-07-29T13:21:59;2.95;;;2.50;;
59434;SDS011;45241;49.768;8.636;2022-07-29T13:24:25;2.50;;;2.30;;
59434;SDS011;45241;49.768;8.636;2022-07-29T13:26:50;2.90;;;2.20;;
59434;SDS011;45241;49.768;8.636;2022-07-29T13:29:16;3.33;;;2.05;;
59434;SDS011;45241;49.768;8.636;2022-07-29T13:31:42;3.22;;;2.50;;
59434;SDS011;45241;49.768;8.636;2022-07-29T13:34:07;2.80;;;2.42;;
59434;SDS011;45241;49.768;8.636;2022-07-29T13:36:33;2.50;;;2.30;;
59434;SDS011;45241;49.768;8.636;2022-07-29T13:38:58;2.53;;;2.05;;
59434;SDS011;45241;49.768;8.636;2022-07-29T13:41:25;2.90;;;2.35;;
59434;SDS011;45241;49.768;8.636;2022-07-29T13:43:51;3.65;;;2.40;;
59434;SDS011;45241;49.768;8.636;2022-07-29T13:46:16;2.58;;;2.38;;
59434;SDS011;45241;49.768;8.636;2022-07-29T13:48:41;3.53;;;2.10;;
59434;SDS011;45241;49.768;8.636;2022-07-29T13:51:07;2.65;;;2.40;;
59434;SDS011;45241;49.768;8.636;2022-07-29T13:53:32;2.60;;;2.22;;
59434;SDS011;45241;49.768;8.636;2022-07-29T13:55:57;2.30;;;2.05;;
59434;SDS011;45241;49.768;8.636;2022-07-29T13:58:23;3.30;;;2.30;;
59434;SDS011;45241;49.768;8.636;2022-07-29T14:00:48;4.18;;;2.70;;
59434;SDS011;45241;49.768;8.636;2022-07-29T14:03:14;3.33;;;2.38;;
59434;SDS011;45241;49.768;8.636;2022-07-29T14:05:40;4.22;;;2.50;;
59434;SDS011;45241;49.768;8.636;2022-07-29T14:08:05;2.63;;;2.42;;
59434;SDS011;45241;49.768;8.636;2022-07-29T14:10:30;2.75;;;2.42;;
59434;SDS011;45241;49.768;8.636;2022-07-29T14:12:56;4.30;;;2.63;;
59434;SDS011;45241;49.768;8.636;2022-07-29T14:15:21;4.60;;;2.67;;
59434;SDS011;45241;49.768;8.636;2022-07-29T14:17:48;3.25;;;2.47;;
59434;SDS011;45241;49.768;8.636;2022-07-29T14:20:13;3.70;;;2.80;;
59434;SDS011;45241;49.768;8.636;2022-07-29T14:22:40;3.35;;;2.75;;
59434;SDS011;45241;49.768;8.636;2022-07-29T14:25:06;4.18;;;3.00;;
59434;SDS011;45241;49.768;8.636;2022-07-29T14:27:31;3.35;;;2.50;;
59434;SDS011;45241;49.768;8.636;2022-07-29T14:29:57;4.03;;;2.75;;
59434;SDS011;45241;49.768;8.636;2022-07-29T14:32:22;3.88;;;2.75;;
59434;SDS011;45241;49.768;8.636;2022-07-29T14:34:47;4.05;;;2.50;;
59434;SDS011;45241;49.768;8.636;2022-07-29T14:37:13;3.33;;;2.40;;
59434;SDS011;45241;49.768;8.636;2022-07-29T14:39:38;3.28;;;2.72;;
59434;SDS011;45241;49.768;8.636;2022-07-29T14:42:03;2.75;;;2.55;;
59434;SDS011;45241;49.768;8.636;2022-07-29T14:44:29;2.88;;;2.55;;
59434;SDS011;45241;49.768;8.636;2022-07-29T14:46:56;3.00;;;2.70;;
59434;SDS011;45241;49.768;8.636;2022-07-29T14:49:22;7.93;;;2.80;;
59434;SDS011;45241;49.768;8.636;2022-07-29T14:51:48;3.20;;;2.58;;
59434;SDS011;45241;49.768;8.636;2022-07-29T14:54:13;2.75;;;2.35;;
59434;SDS011;45241;49.768;8.636;2022-07-29T14:56:39;3.28;;;2.60;;
59434;SDS011;45241;49.768;8.636;2022-07-29T14:59:04;3.95;;;2.55;;
59434;SDS011;45241;49.768;8.636;2022-07-29T15:01:30;4.10;;;2.42;;
59434;SDS011;45241;49.768;8.636;2022-07-29T15:03:56;3.65;;;2.60;;
59434;SDS011;45241;49.768;8.636;2022-07-29T15:06:21;3.38;;;2.22;;
59434;SDS011;45241;49.768;8.636;2022-07-29T15:08:47;2.95;;;2.42;;
59434;SDS011;45241;49.768;8.636;2022-07-29T15:11:12;4.10;;;2.40;;
59434;SDS011;45241;49.768;8.636;2022-07-29T15:13:38;5.25;;;2.67;;
59434;SDS011;45241;49.768;8.636;2022-07-29T15:16:04;4.03;;;2.60;;
59434;SDS011;45241;49.768;8.636;2022-07-29T15:18:29;4.05;;;2.50;;
59434;SDS011;45241;49.768;8.636;2022-07-29T15:20:55;5.18;;;2.58;;
59434;SDS011;45241;49.768;8.636;2022-07-29T15:23:20;4.13;;;2.25;;
59434;SDS011;45241;49.768;8.636;2022-07-29T15:25:45;2.70;;;2.50;;
59434;SDS011;45241;49.768;8.636;2022-07-29T15:28:11;2.60;;;2.28;;
59434;SDS011;45241;49.768;8.636;2022-07-29T15:30:36;2.50;;;2.30;;
59434;SDS011;45241;49.768;8.636;2022-07-29T15:35:31;3.60;;;2.70;;
59434;SDS011;45241;49.768;8.636;2022-07-29T15:37:57;2.67;;;2.17;;
59434;SDS011;45241;49.768;8.636;2022-07-29T15:40:23;3.33;;;2.60;;
59434;SDS011;45241;49.768;8.636;2022-07-29T15:42:48;3.45;;;2.20;;
59434;SDS011;45241;49.768;8.636;2022-07-29T15:45:13;3.78;;;2.33;;
59434;SDS011;45241;49.768;8.636;2022-07-29T15:47:39;4.40;;;2.40;;
59434;SDS011;45241;49.768;8.636;2022-07-29T15:50:04;4.38;;;2.38;;
59434;SDS011;45241;49.768;8.636;2022-07-29T15:52:31;3.40;;;2.15;;
59434;SDS011;45241;49.768;8.636;2022-07-29T15:54:56;3.55;;;2.08;;
59434;SDS011;45241;49.768;8.636;2022-07-29T15:57:22;3.33;;;2.53;;
59434;SDS011;45241;49.768;8.636;2022-07-29T15:59:48;2.95;;;2.30;;
59434;SDS011;45241;49.768;8.636;2022-07-29T16:02:13;3.72;;;2.22;;